sensor_id;sensor_type;location;lat;lon;timestamp;P1;durP1;ratioP1;P2;durP2;ratioP2
62419;SDS011;48460;51.616;5.426;2023-03-03T00:00:38;35.58;;;15.82;;
62419;SDS011;48460;51.616;5.426;2023-03-03T00:03:09;38.67;;;16.77;;
62419;SDS011;48460;51.616;5.426;2023-03-03T00:05:36;31.88;;;15.80;;
62419;SDS011;48460;51.616;5.426;2023-03-03T00:08:07;36.63;;;16.35;;
62419;SDS011;48460;51.616;5.426;2023-03-03T00:11:02;33.38;;;14.80;;
62419;SDS011;48460;51.616;5.426;2023-03-03T00:13:32;36.45;;;16.27;;
62419;SDS011;48460;51.616;5.426;2023-03-03T00:16:15;36.60;;;16.02;;
62419;SDS011;48460;51.616;5.426;2023-03-03T00:19:18;31.23;;;14.02;;
62419;SDS011;48460;51.616;5.426;2023-03-03T00:21:55;33.55;;;14.98;;
62419;SDS011;48460;51.616;5.426;2023-03-03T00:24:35;34.05;;;15.88;;
62419;SDS011;48460;51.616;5.426;2023-03-03T00:27:09;32.88;;;15.38;;
62419;SDS011;48460;51.616;5.426;2023-03-03T00:30:05;32.30;;;14.32;;
62419;SDS011;48460;51.616;5.426;2023-03-03T00:32:52;25.75;;;12.73;;
62419;SDS011;48460;51.616;5.426;2023-03-03T00:37:54;34.50;;;15.43;;
62419;SDS011;48460;51.616;5.426;2023-03-03T00:40:37;34.70;;;16.05;;
62419;SDS011;48460;51.616;5.426;2023-03-03T00:43:26;33.83;;;15.18;;
62419;SDS011;48460;51.616;5.426;2023-03-03T00:46:00;33.67;;;14.57;;
62419;SDS011;48460;51.616;5.426;2023-03-03T00:48:41;26.80;;;11.23;;
62419;SDS011;48460;51.616;5.426;2023-03-03T00:51:19;32.63;;;14.75;;
62419;SDS011;48460;51.616;5.426;2023-03-03T00:53:55;35.17;;;14.25;;
62419;SDS011;48460;51.616;5.426;2023-03-03T00:56:22;30.95;;;14.35;;
62419;SDS011;48460;51.616;5.426;2023-03-03T00:58:50;34.60;;;14.60;;
62419;SDS011;48460;51.616;5.426;2023-03-03T01:01:18;36.22;;;14.85;;
62419;SDS011;48460;51.616;5.426;2023-03-03T01:03:51;23.83;;;11.55;;
62419;SDS011;48460;51.616;5.426;2023-03-03T01:06:26;32.97;;;15.05;;
62419;SDS011;48460;51.616;5.426;2023-03-03T01:09:00;32.53;;;14.77;;
62419;SDS011;48460;51.616;5.426;2023-03-03T01:11:30;30.67;;;13.63;;
62419;SDS011;48460;51.616;5.426;2023-03-03T01:13:56;32.55;;;13.63;;
62419;SDS011;48460;51.616;5.426;2023-03-03T01:16:24;29.85;;;14.02;;
62419;SDS011;48460;51.616;5.426;2023-03-03T01:18:49;30.85;;;13.57;;
62419;SDS011;48460;51.616;5.426;2023-03-03T01:21:15;36.08;;;15.13;;
62419;SDS011;48460;51.616;5.426;2023-03-03T01:23:41;32.70;;;15.63;;
62419;SDS011;48460;51.616;5.426;2023-03-03T01:26:13;35.03;;;14.65;;
62419;SDS011;48460;51.616;5.426;2023-03-03T01:28:52;27.50;;;13.02;;
62419;SDS011;48460;51.616;5.426;2023-03-03T01:31:20;29.67;;;13.65;;
62419;SDS011;48460;51.616;5.426;2023-03-03T01:33:56;31.08;;;13.25;;
62419;SDS011;48460;51.616;5.426;2023-03-03T01:36:25;31.10;;;14.55;;
62419;SDS011;48460;51.616;5.426;2023-03-03T01:38:57;35.35;;;15.48;;
62419;SDS011;48460;51.616;5.426;2023-03-03T01:41:25;31.23;;;14.80;;
62419;SDS011;48460;51.616;5.426;2023-03-03T01:43:59;35.38;;;15.35;;
62419;SDS011;48460;51.616;5.426;2023-03-03T01:46:45;32.13;;;14.77;;
62419;SDS011;48460;51.616;5.426;2023-03-03T01:49:35;36.53;;;14.77;;
62419;SDS011;48460;51.616;5.426;2023-03-03T01:52:34;34.25;;;14.55;;
62419;SDS011;48460;51.616;5.426;2023-03-03T01:55:04;35.53;;;16.55;;
62419;SDS011;48460;51.616;5.426;2023-03-03T01:57:45;33.58;;;15.50;;
62419;SDS011;48460;51.616;5.426;2023-03-03T02:00:25;33.55;;;13.57;;
62419;SDS011;48460;51.616;5.426;2023-03-03T02:02:51;30.42;;;12.55;;
62419;SDS011;48460;51.616;5.426;2023-03-03T02:05:26;34.60;;;15.32;;
62419;SDS011;48460;51.616;5.426;2023-03-03T02:08:02;36.80;;;15.02;;
62419;SDS011;48460;51.616;5.426;2023-03-03T02:10:36;38.35;;;16.33;;
62419;SDS011;48460;51.616;5.426;2023-03-03T02:13:12;37.60;;;16.00;;
62419;SDS011;48460;51.616;5.426;2023-03-03T02:15:56;37.25;;;15.65;;
62419;SDS011;48460;51.616;5.426;2023-03-03T02:18:27;35.65;;;13.82;;
62419;SDS011;48460;51.616;5.426;2023-03-03T02:21:13;30.23;;;13.45;;
62419;SDS011;48460;51.616;5.426;2023-03-03T02:23:52;30.92;;;13.18;;
62419;SDS011;48460;51.616;5.426;2023-03-03T02:26:41;24.63;;;10.85;;
62419;SDS011;48460;51.616;5.426;2023-03-03T02:29:10;32.83;;;15.27;;
62419;SDS011;48460;51.616;5.426;2023-03-03T02:31:46;38.97;;;16.38;;
62419;SDS011;48460;51.616;5.426;2023-03-03T02:34:14;38.35;;;15.30;;
62419;SDS011;48460;51.616;5.426;2023-03-03T02:36:42;39.85;;;16.08;;
62419;SDS011;48460;51.616;5.426;2023-03-03T02:44:48;34.28;;;15.35;;
62419;SDS011;48460;51.616;5.426;2023-03-03T02:47:16;37.85;;;15.55;;
62419;SDS011;48460;51.616;5.426;2023-03-03T02:49:49;37.28;;;15.52;;
62419;SDS011;48460;51.616;5.426;2023-03-03T02:52:17;41.15;;;16.88;;
62419;SDS011;48460;51.616;5.426;2023-03-03T02:54:45;36.30;;;14.73;;
62419;SDS011;48460;51.616;5.426;2023-03-03T02:57:16;36.30;;;16.08;;
62419;SDS011;48460;51.616;5.426;2023-03-03T02:59:54;41.10;;;16.45;;
62419;SDS011;48460;51.616;5.426;2023-03-03T03:02:32;38.97;;;16.52;;
62419;SDS011;48460;51.616;5.426;2023-03-03T03:04:58;35.95;;;15.32;;
62419;SDS011;48460;51.616;5.426;2023-03-03T03:07:26;39.08;;;15.73;;
62419;SDS011;48460;51.616;5.426;2023-03-03T03:09:56;36.83;;;14.63;;
62419;SDS011;48460;51.616;5.426;2023-03-03T03:12:32;32.40;;;13.55;;
62419;SDS011;48460;51.616;5.426;2023-03-03T03:15:00;32.78;;;13.88;;
62419;SDS011;48460;51.616;5.426;2023-03-03T03:17:37;31.65;;;14.32;;
62419;SDS011;48460;51.616;5.426;2023-03-03T03:20:08;34.72;;;14.35;;
62419;SDS011;48460;51.616;5.426;2023-03-03T03:22:54;30.23;;;12.43;;
62419;SDS011;48460;51.616;5.426;2023-03-03T03:25:27;34.05;;;14.15;;
62419;SDS011;48460;51.616;5.426;2023-03-03T03:27:52;35.40;;;14.50;;
62419;SDS011;48460;51.616;5.426;2023-03-03T03:30:28;35.35;;;14.18;;
62419;SDS011;48460;51.616;5.426;2023-03-03T03:32:58;36.33;;;14.38;;
62419;SDS011;48460;51.616;5.426;2023-03-03T03:35:27;31.98;;;14.55;;
62419;SDS011;48460;51.616;5.426;2023-03-03T03:38:16;38.28;;;15.38;;
62419;SDS011;48460;51.616;5.426;2023-03-03T03:40:44;29.60;;;12.80;;
62419;SDS011;48460;51.616;5.426;2023-03-03T03:43:12;30.40;;;13.20;;
62419;SDS011;48460;51.616;5.426;2023-03-03T03:45:48;29.73;;;13.32;;
62419;SDS011;48460;51.616;5.426;2023-03-03T03:48:16;29.80;;;12.90;;
62419;SDS011;48460;51.616;5.426;2023-03-03T03:50:47;28.10;;;12.75;;
62419;SDS011;48460;51.616;5.426;2023-03-03T03:53:17;30.45;;;13.63;;
62419;SDS011;48460;51.616;5.426;2023-03-03T03:55:45;28.33;;;11.98;;
62419;SDS011;48460;51.616;5.426;2023-03-03T03:58:13;26.27;;;11.85;;
62419;SDS011;48460;51.616;5.426;2023-03-03T04:00:44;29.73;;;13.20;;
62419;SDS011;48460;51.616;5.426;2023-03-03T04:03:20;24.83;;;10.25;;
62419;SDS011;48460;51.616;5.426;2023-03-03T04:05:51;35.83;;;15.37;;
62419;SDS011;48460;51.616;5.426;2023-03-03T04:08:24;32.40;;;14.00;;
62419;SDS011;48460;51.616;5.426;2023-03-03T04:10:57;36.30;;;15.23;;
62419;SDS011;48460;51.616;5.426;2023-03-03T04:13:32;28.60;;;12.32;;
62419;SDS011;48460;51.616;5.426;2023-03-03T04:16:09;33.60;;;14.27;;
62419;SDS011;48460;51.616;5.426;2023-03-03T04:18:38;37.50;;;15.90;;
62419;SDS011;48460;51.616;5.426;2023-03-03T04:21:12;29.17;;;13.15;;
62419;SDS011;48460;51.616;5.426;2023-03-03T04:23:45;35.60;;;15.00;;
62419;SDS011;48460;51.616;5.426;2023-03-03T04:26:14;29.27;;;12.15;;
62419;SDS011;48460;51.616;5.426;2023-03-03T04:29:06;35.05;;;14.45;;
62419;SDS011;48460;51.616;5.426;2023-03-03T04:31:56;31.77;;;13.90;;
62419;SDS011;48460;51.616;5.426;2023-03-03T04:34:27;34.08;;;14.07;;
62419;SDS011;48460;51.616;5.426;2023-03-03T04:36:55;32.13;;;13.45;;
62419;SDS011;48460;51.616;5.426;2023-03-03T04:39:30;32.55;;;13.65;;
62419;SDS011;48460;51.616;5.426;2023-03-03T04:41:56;33.75;;;14.30;;
62419;SDS011;48460;51.616;5.426;2023-03-03T04:44:31;35.95;;;14.30;;
62419;SDS011;48460;51.616;5.426;2023-03-03T04:47:05;32.55;;;13.23;;
62419;SDS011;48460;51.616;5.426;2023-03-03T04:49:42;29.70;;;13.00;;
62419;SDS011;48460;51.616;5.426;2023-03-03T04:52:32;34.83;;;14.20;;
62419;SDS011;48460;51.616;5.426;2023-03-03T04:55:04;31.95;;;13.65;;
62419;SDS011;48460;51.616;5.426;2023-03-03T04:57:33;34.35;;;13.70;;
62419;SDS011;48460;51.616;5.426;2023-03-03T05:00:28;28.48;;;12.35;;
62419;SDS011;48460;51.616;5.426;2023-03-03T05:03:30;35.05;;;13.50;;
62419;SDS011;48460;51.616;5.426;2023-03-03T05:06:03;29.02;;;12.23;;
62419;SDS011;48460;51.616;5.426;2023-03-03T05:08:32;32.10;;;13.95;;
62419;SDS011;48460;51.616;5.426;2023-03-03T05:10:57;33.88;;;14.63;;
62419;SDS011;48460;51.616;5.426;2023-03-03T05:13:31;30.33;;;12.05;;
62419;SDS011;48460;51.616;5.426;2023-03-03T05:16:09;35.15;;;14.65;;
62419;SDS011;48460;51.616;5.426;2023-03-03T05:24:52;33.88;;;13.90;;
62419;SDS011;48460;51.616;5.426;2023-03-03T05:27:43;33.95;;;13.50;;
62419;SDS011;48460;51.616;5.426;2023-03-03T05:30:11;35.85;;;14.75;;
62419;SDS011;48460;51.616;5.426;2023-03-03T05:32:43;32.90;;;13.77;;
62419;SDS011;48460;51.616;5.426;2023-03-03T05:35:11;36.55;;;13.65;;
62419;SDS011;48460;51.616;5.426;2023-03-03T05:37:39;35.70;;;14.65;;
62419;SDS011;48460;51.616;5.426;2023-03-03T05:40:11;34.22;;;13.80;;
62419;SDS011;48460;51.616;5.426;2023-03-03T05:42:49;40.92;;;15.00;;
62419;SDS011;48460;51.616;5.426;2023-03-03T05:45:44;37.55;;;14.45;;
62419;SDS011;48460;51.616;5.426;2023-03-03T05:48:26;32.63;;;14.10;;
62419;SDS011;48460;51.616;5.426;2023-03-03T05:50:57;37.55;;;14.60;;
62419;SDS011;48460;51.616;5.426;2023-03-03T05:53:43;35.00;;;14.25;;
62419;SDS011;48460;51.616;5.426;2023-03-03T05:56:21;34.17;;;14.77;;
62419;SDS011;48460;51.616;5.426;2023-03-03T05:58:46;35.25;;;14.02;;
62419;SDS011;48460;51.616;5.426;2023-03-03T06:01:17;38.03;;;14.32;;
62419;SDS011;48460;51.616;5.426;2023-03-03T06:03:47;37.85;;;14.15;;
62419;SDS011;48460;51.616;5.426;2023-03-03T06:06:15;32.38;;;13.23;;
62419;SDS011;48460;51.616;5.426;2023-03-03T06:08:45;40.47;;;14.95;;
62419;SDS011;48460;51.616;5.426;2023-03-03T06:11:18;40.97;;;13.73;;
62419;SDS011;48460;51.616;5.426;2023-03-03T06:13:49;34.15;;;12.60;;
62419;SDS011;48460;51.616;5.426;2023-03-03T06:16:17;35.35;;;13.77;;
62419;SDS011;48460;51.616;5.426;2023-03-03T06:19:09;36.60;;;14.50;;
62419;SDS011;48460;51.616;5.426;2023-03-03T06:21:38;29.25;;;11.15;;
62419;SDS011;48460;51.616;5.426;2023-03-03T06:24:04;35.45;;;14.05;;
62419;SDS011;48460;51.616;5.426;2023-03-03T06:26:30;34.05;;;13.55;;
62419;SDS011;48460;51.616;5.426;2023-03-03T06:28:59;34.08;;;12.93;;
62419;SDS011;48460;51.616;5.426;2023-03-03T06:31:37;32.47;;;13.25;;
62419;SDS011;48460;51.616;5.426;2023-03-03T06:34:08;32.63;;;13.50;;
62419;SDS011;48460;51.616;5.426;2023-03-03T06:36:39;31.70;;;13.15;;
62419;SDS011;48460;51.616;5.426;2023-03-03T06:39:07;32.45;;;13.38;;
62419;SDS011;48460;51.616;5.426;2023-03-03T06:41:43;32.88;;;11.45;;
62419;SDS011;48460;51.616;5.426;2023-03-03T06:44:08;33.80;;;13.35;;
62419;SDS011;48460;51.616;5.426;2023-03-03T06:46:38;28.73;;;11.88;;
62419;SDS011;48460;51.616;5.426;2023-03-03T06:49:03;34.65;;;13.57;;
62419;SDS011;48460;51.616;5.426;2023-03-03T06:51:33;36.55;;;14.05;;
62419;SDS011;48460;51.616;5.426;2023-03-03T06:56:52;33.83;;;12.98;;
62419;SDS011;48460;51.616;5.426;2023-03-03T06:59:25;36.70;;;12.48;;
62419;SDS011;48460;51.616;5.426;2023-03-03T07:01:53;36.33;;;12.82;;
62419;SDS011;48460;51.616;5.426;2023-03-03T07:04:43;33.08;;;13.32;;
62419;SDS011;48460;51.616;5.426;2023-03-03T07:07:26;35.33;;;13.73;;
62419;SDS011;48460;51.616;5.426;2023-03-03T07:09:59;30.45;;;12.35;;
62419;SDS011;48460;51.616;5.426;2023-03-03T07:12:31;39.40;;;14.40;;
62419;SDS011;48460;51.616;5.426;2023-03-03T07:15:18;39.63;;;13.75;;
62419;SDS011;48460;51.616;5.426;2023-03-03T07:17:51;35.38;;;12.98;;
62419;SDS011;48460;51.616;5.426;2023-03-03T07:20:32;36.33;;;12.43;;
62419;SDS011;48460;51.616;5.426;2023-03-03T07:23:04;37.15;;;13.30;;
62419;SDS011;48460;51.616;5.426;2023-03-03T07:25:47;39.63;;;13.60;;
62419;SDS011;48460;51.616;5.426;2023-03-03T07:30:53;33.63;;;13.45;;
62419;SDS011;48460;51.616;5.426;2023-03-03T07:33:28;36.22;;;12.98;;
62419;SDS011;48460;51.616;5.426;2023-03-03T07:36:17;35.28;;;13.07;;
62419;SDS011;48460;51.616;5.426;2023-03-03T07:39:35;37.55;;;13.93;;
62419;SDS011;48460;51.616;5.426;2023-03-03T07:48:37;32.78;;;13.05;;
62419;SDS011;48460;51.616;5.426;2023-03-03T07:54:36;38.22;;;14.52;;
62419;SDS011;48460;51.616;5.426;2023-03-03T08:05:27;40.05;;;14.13;;
62419;SDS011;48460;51.616;5.426;2023-03-03T08:07:55;33.58;;;13.10;;
62419;SDS011;48460;51.616;5.426;2023-03-03T08:13:00;30.17;;;12.07;;
62419;SDS011;48460;51.616;5.426;2023-03-03T08:15:35;32.53;;;11.82;;
62419;SDS011;48460;51.616;5.426;2023-03-03T08:18:14;33.38;;;12.45;;
62419;SDS011;48460;51.616;5.426;2023-03-03T08:21:06;31.13;;;12.70;;
62419;SDS011;48460;51.616;5.426;2023-03-03T08:23:37;30.10;;;11.68;;
62419;SDS011;48460;51.616;5.426;2023-03-03T08:26:05;39.53;;;12.45;;
62419;SDS011;48460;51.616;5.426;2023-03-03T08:28:41;30.15;;;12.70;;
62419;SDS011;48460;51.616;5.426;2023-03-03T08:31:06;28.33;;;11.20;;
62419;SDS011;48460;51.616;5.426;2023-03-03T08:33:43;29.63;;;11.40;;
62419;SDS011;48460;51.616;5.426;2023-03-03T08:36:10;26.38;;;10.05;;
62419;SDS011;48460;51.616;5.426;2023-03-03T08:38:38;21.77;;;10.20;;
62419;SDS011;48460;51.616;5.426;2023-03-03T08:41:06;20.85;;;9.18;;
62419;SDS011;48460;51.616;5.426;2023-03-03T08:43:39;21.15;;;9.70;;
62419;SDS011;48460;51.616;5.426;2023-03-03T08:46:05;21.83;;;9.70;;
62419;SDS011;48460;51.616;5.426;2023-03-03T08:48:40;27.05;;;10.70;;
62419;SDS011;48460;51.616;5.426;2023-03-03T08:51:09;18.77;;;8.80;;
62419;SDS011;48460;51.616;5.426;2023-03-03T08:53:35;21.17;;;9.18;;
62419;SDS011;48460;51.616;5.426;2023-03-03T08:56:03;20.38;;;8.98;;
62419;SDS011;48460;51.616;5.426;2023-03-03T08:58:39;19.88;;;8.70;;
62419;SDS011;48460;51.616;5.426;2023-03-03T09:01:14;27.73;;;9.45;;
62419;SDS011;48460;51.616;5.426;2023-03-03T09:03:41;22.20;;;9.82;;
62419;SDS011;48460;51.616;5.426;2023-03-03T09:06:06;22.30;;;9.65;;
62419;SDS011;48460;51.616;5.426;2023-03-03T09:08:32;24.27;;;10.07;;
62419;SDS011;48460;51.616;5.426;2023-03-03T09:11:02;24.55;;;9.98;;
62419;SDS011;48460;51.616;5.426;2023-03-03T09:13:38;20.45;;;8.40;;
62419;SDS011;48460;51.616;5.426;2023-03-03T09:16:14;22.23;;;8.63;;
62419;SDS011;48460;51.616;5.426;2023-03-03T09:18:45;19.05;;;8.07;;
62419;SDS011;48460;51.616;5.426;2023-03-03T09:24:09;21.17;;;8.63;;
62419;SDS011;48460;51.616;5.426;2023-03-03T09:26:48;22.35;;;9.80;;
62419;SDS011;48460;51.616;5.426;2023-03-03T09:29:35;23.17;;;9.70;;
62419;SDS011;48460;51.616;5.426;2023-03-03T09:32:16;22.77;;;9.32;;
62419;SDS011;48460;51.616;5.426;2023-03-03T09:34:48;20.92;;;8.75;;
62419;SDS011;48460;51.616;5.426;2023-03-03T09:37:21;20.05;;;9.05;;
62419;SDS011;48460;51.616;5.426;2023-03-03T09:39:50;26.55;;;10.18;;
62419;SDS011;48460;51.616;5.426;2023-03-03T09:45:46;18.50;;;8.35;;
62419;SDS011;48460;51.616;5.426;2023-03-03T09:48:25;19.55;;;9.25;;
62419;SDS011;48460;51.616;5.426;2023-03-03T09:53:55;18.55;;;8.05;;
62419;SDS011;48460;51.616;5.426;2023-03-03T09:56:33;21.23;;;8.43;;
62419;SDS011;48460;51.616;5.426;2023-03-03T10:33:36;16.08;;;7.80;;
62419;SDS011;48460;51.616;5.426;2023-03-03T10:41:57;15.75;;;7.90;;
62419;SDS011;48460;51.616;5.426;2023-03-03T10:53:02;17.88;;;7.88;;
62419;SDS011;48460;51.616;5.426;2023-03-03T11:01:35;19.02;;;7.72;;
62419;SDS011;48460;51.616;5.426;2023-03-03T11:07:55;16.65;;;7.03;;
62419;SDS011;48460;51.616;5.426;2023-03-03T11:13:21;15.70;;;7.47;;
62419;SDS011;48460;51.616;5.426;2023-03-03T11:21:42;13.95;;;7.35;;
62419;SDS011;48460;51.616;5.426;2023-03-03T11:24:59;16.38;;;7.50;;
62419;SDS011;48460;51.616;5.426;2023-03-03T11:27:22;15.63;;;7.22;;
62419;SDS011;48460;51.616;5.426;2023-03-03T11:33:00;17.63;;;7.63;;
62419;SDS011;48460;51.616;5.426;2023-03-03T11:35:39;19.52;;;8.10;;
62419;SDS011;48460;51.616;5.426;2023-03-03T11:43:40;14.38;;;6.55;;
62419;SDS011;48460;51.616;5.426;2023-03-03T11:46:37;12.18;;;6.00;;
62419;SDS011;48460;51.616;5.426;2023-03-03T11:57:42;13.27;;;6.45;;
62419;SDS011;48460;51.616;5.426;2023-03-03T12:00:28;14.75;;;6.15;;
62419;SDS011;48460;51.616;5.426;2023-03-03T12:12:09;9.95;;;5.47;;
62419;SDS011;48460;51.616;5.426;2023-03-03T12:29:11;10.40;;;5.68;;
62419;SDS011;48460;51.616;5.426;2023-03-03T12:31:52;10.55;;;5.10;;
62419;SDS011;48460;51.616;5.426;2023-03-03T12:34:35;10.63;;;5.60;;
62419;SDS011;48460;51.616;5.426;2023-03-03T12:40:05;11.25;;;5.40;;
62419;SDS011;48460;51.616;5.426;2023-03-03T12:45:43;9.98;;;5.40;;
62419;SDS011;48460;51.616;5.426;2023-03-03T12:54:32;9.45;;;5.47;;
62419;SDS011;48460;51.616;5.426;2023-03-03T12:57:15;14.45;;;5.93;;
62419;SDS011;48460;51.616;5.426;2023-03-03T13:05:22;11.20;;;5.60;;
62419;SDS011;48460;51.616;5.426;2023-03-03T13:13:52;11.85;;;5.63;;
62419;SDS011;48460;51.616;5.426;2023-03-03T13:16:21;9.77;;;4.95;;
62419;SDS011;48460;51.616;5.426;2023-03-03T13:18:56;16.38;;;5.25;;
62419;SDS011;48460;51.616;5.426;2023-03-03T13:24:52;7.78;;;4.43;;
62419;SDS011;48460;51.616;5.426;2023-03-03T13:27:37;9.25;;;4.43;;
62419;SDS011;48460;51.616;5.426;2023-03-03T13:30:14;7.43;;;4.47;;
62419;SDS011;48460;51.616;5.426;2023-03-03T13:54:47;9.32;;;5.00;;
62419;SDS011;48460;51.616;5.426;2023-03-03T14:00:55;8.60;;;4.65;;
62419;SDS011;48460;51.616;5.426;2023-03-03T14:07:00;9.60;;;4.60;;
62419;SDS011;48460;51.616;5.426;2023-03-03T14:21:34;9.20;;;4.85;;
62419;SDS011;48460;51.616;5.426;2023-03-03T14:27:28;8.85;;;4.18;;
62419;SDS011;48460;51.616;5.426;2023-03-03T14:35:34;6.60;;;4.15;;
62419;SDS011;48460;51.616;5.426;2023-03-03T14:38:19;8.00;;;4.57;;
62419;SDS011;48460;51.616;5.426;2023-03-03T14:43:59;6.15;;;4.28;;
62419;SDS011;48460;51.616;5.426;2023-03-03T14:46:59;6.88;;;4.20;;
62419;SDS011;48460;51.616;5.426;2023-03-03T14:49:31;8.43;;;4.30;;
62419;SDS011;48460;51.616;5.426;2023-03-03T14:52:02;7.20;;;4.40;;
62419;SDS011;48460;51.616;5.426;2023-03-03T14:55:07;6.57;;;4.22;;
62419;SDS011;48460;51.616;5.426;2023-03-03T14:57:58;11.13;;;4.30;;
62419;SDS011;48460;51.616;5.426;2023-03-03T15:00:36;8.93;;;4.70;;
62419;SDS011;48460;51.616;5.426;2023-03-03T15:03:04;8.70;;;5.03;;
62419;SDS011;48460;51.616;5.426;2023-03-03T15:05:51;7.22;;;4.70;;
62419;SDS011;48460;51.616;5.426;2023-03-03T15:08:26;8.13;;;4.50;;
62419;SDS011;48460;51.616;5.426;2023-03-03T15:11:20;8.48;;;4.43;;
62419;SDS011;48460;51.616;5.426;2023-03-03T15:14:09;12.10;;;4.82;;
62419;SDS011;48460;51.616;5.426;2023-03-03T15:16:38;8.10;;;4.60;;
62419;SDS011;48460;51.616;5.426;2023-03-03T15:19:16;9.02;;;4.43;;
62419;SDS011;48460;51.616;5.426;2023-03-03T15:22:07;8.82;;;4.10;;
62419;SDS011;48460;51.616;5.426;2023-03-03T15:30:20;7.15;;;3.80;;
62419;SDS011;48460;51.616;5.426;2023-03-03T15:32:52;11.90;;;4.10;;
62419;SDS011;48460;51.616;5.426;2023-03-03T15:44:15;6.32;;;3.58;;
62419;SDS011;48460;51.616;5.426;2023-03-03T15:53:05;6.82;;;3.30;;
62419;SDS011;48460;51.616;5.426;2023-03-03T16:01:38;5.82;;;2.60;;
62419;SDS011;48460;51.616;5.426;2023-03-03T16:04:13;7.00;;;2.90;;
62419;SDS011;48460;51.616;5.426;2023-03-03T16:09:23;7.80;;;3.22;;
62419;SDS011;48460;51.616;5.426;2023-03-03T16:12:10;6.18;;;2.83;;
62419;SDS011;48460;51.616;5.426;2023-03-03T16:17:44;6.22;;;2.90;;
62419;SDS011;48460;51.616;5.426;2023-03-03T16:20:30;9.40;;;3.40;;
62419;SDS011;48460;51.616;5.426;2023-03-03T16:43:39;7.13;;;3.05;;
62419;SDS011;48460;51.616;5.426;2023-03-03T16:46:21;8.43;;;2.97;;
62419;SDS011;48460;51.616;5.426;2023-03-03T16:51:51;6.75;;;3.35;;
62419;SDS011;48460;51.616;5.426;2023-03-03T16:54:31;6.85;;;3.20;;
62419;SDS011;48460;51.616;5.426;2023-03-03T16:57:00;7.32;;;3.50;;
62419;SDS011;48460;51.616;5.426;2023-03-03T17:05:46;10.73;;;3.15;;
62419;SDS011;48460;51.616;5.426;2023-03-03T17:08:08;6.28;;;3.10;;
62419;SDS011;48460;51.616;5.426;2023-03-03T17:10:54;14.75;;;3.60;;
62419;SDS011;48460;51.616;5.426;2023-03-03T17:16:46;6.15;;;3.05;;
62419;SDS011;48460;51.616;5.426;2023-03-03T17:21:49;9.93;;;2.95;;
62419;SDS011;48460;51.616;5.426;2023-03-03T17:24:32;6.00;;;2.70;;
62419;SDS011;48460;51.616;5.426;2023-03-03T17:32:54;4.88;;;2.75;;
62419;SDS011;48460;51.616;5.426;2023-03-03T17:46:27;8.95;;;3.28;;
62419;SDS011;48460;51.616;5.426;2023-03-03T17:49:11;11.05;;;3.10;;
62419;SDS011;48460;51.616;5.426;2023-03-03T17:54:45;9.13;;;2.50;;
62419;SDS011;48460;51.616;5.426;2023-03-03T18:05:52;7.03;;;2.40;;
62419;SDS011;48460;51.616;5.426;2023-03-03T18:11:31;7.40;;;2.78;;
62419;SDS011;48460;51.616;5.426;2023-03-03T18:17:09;11.55;;;3.20;;
62419;SDS011;48460;51.616;5.426;2023-03-03T18:22:45;5.68;;;2.70;;
62419;SDS011;48460;51.616;5.426;2023-03-03T18:25:25;7.00;;;2.83;;
62419;SDS011;48460;51.616;5.426;2023-03-03T18:28:15;6.38;;;2.90;;
62419;SDS011;48460;51.616;5.426;2023-03-03T18:31:00;11.35;;;3.20;;
62419;SDS011;48460;51.616;5.426;2023-03-03T18:33:55;7.70;;;2.72;;
62419;SDS011;48460;51.616;5.426;2023-03-03T18:39:03;7.97;;;2.80;;
62419;SDS011;48460;51.616;5.426;2023-03-03T18:41:31;6.28;;;2.90;;
62419;SDS011;48460;51.616;5.426;2023-03-03T18:43:59;7.00;;;3.50;;
62419;SDS011;48460;51.616;5.426;2023-03-03T18:46:45;12.07;;;3.90;;
62419;SDS011;48460;51.616;5.426;2023-03-03T18:49:12;9.52;;;3.13;;
62419;SDS011;48460;51.616;5.426;2023-03-03T18:51:45;6.80;;;2.78;;
62419;SDS011;48460;51.616;5.426;2023-03-03T19:04:52;8.00;;;3.70;;
62419;SDS011;48460;51.616;5.426;2023-03-03T19:07:41;7.43;;;3.53;;
62419;SDS011;48460;51.616;5.426;2023-03-03T19:12:47;8.82;;;3.60;;
62419;SDS011;48460;51.616;5.426;2023-03-03T19:18:13;10.38;;;3.88;;
62419;SDS011;48460;51.616;5.426;2023-03-03T19:20:59;8.15;;;3.05;;
62419;SDS011;48460;51.616;5.426;2023-03-03T19:23:44;8.98;;;3.08;;
62419;SDS011;48460;51.616;5.426;2023-03-03T19:31:38;12.15;;;3.28;;
62419;SDS011;48460;51.616;5.426;2023-03-03T19:34:33;12.45;;;3.90;;
62419;SDS011;48460;51.616;5.426;2023-03-03T19:48:44;7.25;;;3.47;;
62419;SDS011;48460;51.616;5.426;2023-03-03T19:54:11;11.43;;;4.53;;
62419;SDS011;48460;51.616;5.426;2023-03-03T19:56:53;11.50;;;3.70;;
62419;SDS011;48460;51.616;5.426;2023-03-03T20:07:30;9.98;;;4.05;;
62419;SDS011;48460;51.616;5.426;2023-03-03T20:10:33;12.98;;;4.30;;
62419;SDS011;48460;51.616;5.426;2023-03-03T20:13:38;8.27;;;3.72;;
62419;SDS011;48460;51.616;5.426;2023-03-03T20:18:49;12.05;;;4.30;;
62419;SDS011;48460;51.616;5.426;2023-03-03T20:24:11;10.60;;;3.70;;
62419;SDS011;48460;51.616;5.426;2023-03-03T20:26:59;8.77;;;3.80;;
62419;SDS011;48460;51.616;5.426;2023-03-03T20:40:56;11.45;;;3.38;;
62419;SDS011;48460;51.616;5.426;2023-03-03T21:01:33;11.52;;;3.42;;
62419;SDS011;48460;51.616;5.426;2023-03-03T21:04:22;17.02;;;3.70;;
62419;SDS011;48460;51.616;5.426;2023-03-03T21:06:52;17.38;;;4.32;;
62419;SDS011;48460;51.616;5.426;2023-03-03T21:09:29;12.40;;;3.22;;
62419;SDS011;48460;51.616;5.426;2023-03-03T21:12:11;14.77;;;3.65;;
62419;SDS011;48460;51.616;5.426;2023-03-03T21:15:01;16.02;;;3.78;;
62419;SDS011;48460;51.616;5.426;2023-03-03T21:17:46;15.65;;;3.78;;
62419;SDS011;48460;51.616;5.426;2023-03-03T21:22:59;24.02;;;4.00;;
62419;SDS011;48460;51.616;5.426;2023-03-03T21:31:04;30.70;;;5.88;;
62419;SDS011;48460;51.616;5.426;2023-03-03T21:33:57;22.88;;;5.43;;
62419;SDS011;48460;51.616;5.426;2023-03-03T21:39:39;14.15;;;3.85;;
62419;SDS011;48460;51.616;5.426;2023-03-03T21:42:11;17.95;;;4.10;;
62419;SDS011;48460;51.616;5.426;2023-03-03T21:44:47;17.42;;;3.13;;
62419;SDS011;48460;51.616;5.426;2023-03-03T21:47:26;17.75;;;3.88;;
62419;SDS011;48460;51.616;5.426;2023-03-03T21:49:52;17.92;;;3.42;;
62419;SDS011;48460;51.616;5.426;2023-03-03T21:52:20;20.23;;;3.67;;
62419;SDS011;48460;51.616;5.426;2023-03-03T21:54:47;13.30;;;3.40;;
62419;SDS011;48460;51.616;5.426;2023-03-03T21:57:21;22.73;;;4.82;;
62419;SDS011;48460;51.616;5.426;2023-03-03T21:59:50;22.33;;;3.72;;
62419;SDS011;48460;51.616;5.426;2023-03-03T22:02:18;20.65;;;4.90;;
62419;SDS011;48460;51.616;5.426;2023-03-03T22:04:54;18.38;;;3.20;;
62419;SDS011;48460;51.616;5.426;2023-03-03T22:07:20;20.23;;;4.15;;
62419;SDS011;48460;51.616;5.426;2023-03-03T22:09:45;13.73;;;3.42;;
62419;SDS011;48460;51.616;5.426;2023-03-03T22:12:13;17.10;;;3.80;;
62419;SDS011;48460;51.616;5.426;2023-03-03T22:14:39;20.88;;;3.67;;
62419;SDS011;48460;51.616;5.426;2023-03-03T22:17:04;21.55;;;3.47;;
62419;SDS011;48460;51.616;5.426;2023-03-03T22:19:30;23.30;;;3.72;;
62419;SDS011;48460;51.616;5.426;2023-03-03T22:21:55;25.80;;;3.58;;
62419;SDS011;48460;51.616;5.426;2023-03-03T22:24:21;17.25;;;3.67;;
62419;SDS011;48460;51.616;5.426;2023-03-03T22:26:47;23.55;;;3.15;;
62419;SDS011;48460;51.616;5.426;2023-03-03T22:29:23;51.70;;;12.43;;
62419;SDS011;48460;51.616;5.426;2023-03-03T22:31:49;59.30;;;13.70;;
62419;SDS011;48460;51.616;5.426;2023-03-03T22:34:17;36.40;;;8.75;;